createdAt,value
2023-04-01T00:01:54.265Z,10.31
2023-04-01T00:06:57.755Z,10.33
2023-04-01T00:12:00.609Z,10.31
2023-04-01T00:17:03.824Z,10.23
2023-04-01T00:22:07.222Z,10.25
2023-04-01T00:27:11.384Z,10.34
2023-04-01T00:32:15.699Z,10.40
2023-04-01T00:37:19.011Z,10.40
2023-04-01T00:42:21.898Z,10.37
2023-04-01T00:47:27.480Z,10.39
2023-04-01T00:52:30.343Z,10.41
2023-04-01T00:57:38.288Z,10.41
2023-04-01T01:02:44.139Z,10.41
2023-04-01T01:08:41.003Z,10.45
2023-04-01T01:14:06.819Z,10.51
2023-04-01T01:20:25.431Z,10.53
2023-04-01T01:25:47.405Z,10.54
2023-04-01T01:31:08.863Z,10.57
2023-04-01T01:36:15.145Z,10.60
2023-04-01T01:41:19.493Z,10.63
2023-04-01T01:46:27.190Z,10.64
2023-04-01T01:51:30.118Z,10.63
2023-04-01T01:56:36.247Z,10.63
2023-04-01T02:01:46.116Z,10.64
2023-04-01T02:07:03.401Z,10.66
2023-04-01T02:12:09.226Z,10.64
2023-04-01T02:17:19.599Z,10.57
2023-04-01T02:22:32.761Z,10.51
2023-04-01T02:27:35.741Z,10.49
2023-04-01T02:32:40.702Z,10.49
2023-04-01T02:37:45.005Z,10.51
2023-04-01T02:42:47.841Z,10.49
2023-04-01T02:47:50.703Z,10.43
2023-04-01T02:52:53.541Z,10.36
2023-04-01T02:57:56.705Z,10.29
2023-04-01T03:02:59.606Z,10.27
2023-04-01T03:08:03.640Z,10.30
2023-04-01T03:13:07.293Z,10.29
2023-04-01T03:18:10.005Z,10.19
2023-04-01T03:23:13.577Z,10.10
2023-04-01T03:28:16.395Z,10.04
2023-04-01T03:33:19.199Z,10.04
2023-04-01T03:38:22.013Z,10.08
2023-04-01T03:43:24.872Z,10.06
2023-04-01T03:48:27.713Z,10.03
2023-04-01T03:53:30.598Z,10.00
2023-04-01T03:58:33.721Z,10.01
2023-04-01T04:03:37.191Z,10.02
2023-04-01T04:08:40.241Z,10.00
2023-04-01T04:13:44.221Z,9.96
2023-04-01T04:18:47.185Z,9.94
2023-04-01T04:23:50.131Z,9.94
2023-04-01T04:28:53.069Z,9.97
2023-04-01T04:33:56.195Z,9.96
2023-04-01T04:39:02.896Z,9.92
2023-04-01T04:44:06.400Z,9.87
2023-04-01T04:49:09.216Z,9.87
2023-04-01T04:54:12.123Z,9.85
2023-04-01T04:59:14.914Z,9.83
2023-04-01T05:04:17.736Z,9.80
2023-04-01T05:09:20.684Z,9.86
2023-04-01T05:14:23.484Z,9.96
2023-04-01T05:19:26.265Z,10.03
2023-04-01T05:24:29.109Z,10.07
2023-04-01T05:29:31.921Z,10.07
2023-04-01T05:34:34.721Z,10.08
2023-04-01T05:39:39.447Z,10.15
2023-04-01T05:44:42.261Z,10.24
2023-04-01T05:49:45.066Z,10.33
2023-04-01T05:54:47.880Z,10.43
2023-04-01T05:59:50.675Z,10.61
2023-04-01T06:05:11.636Z,10.80
2023-04-01T06:10:22.485Z,11.08
2023-04-01T06:15:44.629Z,11.21
2023-04-01T06:21:41.599Z,11.24
2023-04-01T06:27:40.123Z,11.21
2023-04-01T06:33:31.037Z,11.27
2023-04-01T06:39:11.175Z,11.33
2023-04-01T06:44:51.315Z,11.39
2023-04-01T06:50:54.005Z,11.32
2023-04-01T06:56:12.057Z,11.32
2023-04-01T07:01:21.923Z,11.33
2023-04-01T07:06:36.271Z,11.35
2023-04-01T07:11:41.082Z,11.36
2023-04-01T07:17:01.229Z,11.35
2023-04-01T07:22:25.582Z,11.31
2023-04-01T07:27:31.570Z,11.35
2023-04-01T07:32:51.556Z,11.41
2023-04-01T07:38:38.959Z,11.47
2023-04-01T07:44:26.777Z,11.57
2023-04-01T07:49:47.966Z,11.64
2023-04-01T07:55:17.596Z,11.70
2023-04-01T08:01:21.064Z,11.79
2023-04-01T08:06:38.615Z,11.79
2023-04-01T08:12:25.149Z,11.77
2023-04-01T08:17:52.339Z,11.77
2023-04-01T08:23:18.286Z,11.83
2023-04-01T08:28:33.732Z,11.95
2023-04-01T08:33:37.857Z,12.04
2023-04-01T08:39:02.733Z,12.17
2023-04-01T08:44:23.627Z,12.24
2023-04-01T08:49:57.490Z,12.26
2023-04-01T08:55:18.441Z,12.30
2023-04-01T09:00:45.838Z,12.38
2023-04-01T09:06:18.886Z,12.49
2023-04-01T09:11:49.126Z,12.54
2023-04-01T09:17:07.153Z,12.56
2023-04-01T09:22:12.909Z,12.60
2023-04-01T09:27:45.302Z,12.65
2023-04-01T09:33:12.891Z,12.77
2023-04-01T09:38:18.794Z,12.91
2023-04-01T09:43:29.421Z,12.95
2023-04-01T09:48:47.897Z,12.94
2023-04-01T09:54:27.705Z,12.87
2023-04-01T10:00:06.258Z,12.77
2023-04-01T10:05:35.749Z,12.67
2023-04-01T10:10:38.837Z,12.61
2023-04-01T10:16:32.800Z,12.64
2023-04-01T10:22:24.536Z,12.70
2023-04-01T10:27:59.869Z,12.70
2023-04-01T10:33:26.777Z,12.64
2023-04-01T10:39:09.757Z,12.54
2023-04-01T10:44:52.655Z,12.44
2023-04-01T10:50:32.449Z,12.45
2023-04-01T10:56:12.687Z,12.55
2023-04-01T11:01:54.906Z,12.63
2023-04-01T11:07:31.309Z,12.65
2023-04-01T11:13:11.886Z,12.75
2023-04-01T11:19:10.927Z,12.84
2023-04-01T11:24:41.465Z,12.81
2023-04-01T11:30:15.880Z,12.79
2023-04-01T11:36:21.654Z,12.78
2023-04-01T11:41:38.369Z,12.81
2023-04-01T11:47:22.114Z,12.89
2023-04-01T11:52:58.287Z,13.03
2023-04-01T11:58:51.176Z,13.20
2023-04-01T12:04:49.571Z,13.21
2023-04-01T12:10:18.478Z,13.10
2023-04-01T12:15:42.546Z,13.03
2023-04-01T12:20:54.108Z,13.12
2023-04-01T12:26:37.552Z,13.26
2023-04-01T12:32:04.351Z,13.33
2023-04-01T12:37:44.344Z,13.32
2023-04-01T12:42:59.096Z,13.30
2023-04-01T12:48:40.208Z,13.26
2023-04-01T12:53:56.863Z,13.17
2023-04-01T12:59:24.059Z,12.90
2023-04-01T13:04:42.156Z,12.69
2023-04-01T13:10:01.259Z,12.49
2023-04-01T13:15:22.624Z,12.32
2023-04-01T13:21:16.429Z,12.22
2023-04-01T13:26:39.109Z,12.24
2023-04-01T13:32:12.266Z,12.30
2023-04-01T13:37:28.551Z,12.46
2023-04-01T13:42:41.404Z,12.58
2023-04-01T13:48:13.537Z,12.64
2023-04-01T13:53:45.252Z,12.71
2023-04-01T13:58:56.841Z,12.73
2023-04-01T14:04:27.874Z,12.68
2023-04-01T14:09:57.679Z,12.63
2023-04-01T14:16:03.477Z,12.65
2023-04-01T14:21:23.254Z,12.69
2023-04-01T14:27:18.994Z,12.68
2023-04-01T14:32:52.533Z,12.61
2023-04-01T14:38:31.131Z,12.46
2023-04-01T14:44:12.860Z,12.38
2023-04-01T14:49:36.486Z,12.21
2023-04-01T14:54:43.893Z,11.94
2023-04-01T14:59:59.294Z,11.78
2023-04-01T15:05:39.091Z,11.68
2023-04-01T15:11:37.807Z,11.61
2023-04-01T15:17:07.446Z,11.52
2023-04-01T15:22:45.663Z,11.62
2023-04-01T15:28:14.937Z,11.72
2023-04-01T15:33:34.972Z,11.75
2023-04-01T15:39:06.138Z,11.76
2023-04-01T15:44:43.796Z,11.94
2023-04-01T15:50:13.043Z,12.05
2023-04-01T15:55:47.997Z,12.10
2023-04-01T16:01:17.356Z,12.01
2023-04-01T16:06:47.387Z,11.98
2023-04-01T16:12:02.495Z,12.03
2023-04-01T16:17:54.429Z,12.09
2023-04-01T16:23:11.880Z,11.99
2023-04-01T16:28:33.989Z,11.89
2023-04-01T16:34:07.782Z,11.79
2023-04-01T16:39:29.033Z,11.71
2023-04-01T16:44:32.223Z,11.65
2023-04-01T16:49:51.800Z,11.63
2023-04-01T16:55:02.767Z,11.68
2023-04-01T17:00:28.421Z,11.67
2023-04-01T17:05:56.982Z,11.62
2023-04-01T17:11:20.655Z,11.60
2023-04-01T17:17:01.929Z,11.60
2023-04-01T17:22:20.632Z,11.68
2023-04-01T17:27:40.607Z,11.74
2023-04-01T17:33:11.230Z,11.78
2023-04-01T17:38:54.126Z,11.75
2023-04-01T17:44:30.712Z,11.67
2023-04-01T17:50:04.169Z,11.56
2023-04-01T17:55:43.066Z,11.41
2023-04-01T18:00:59.694Z,11.22
2023-04-01T18:06:21.120Z,11.06
2023-04-01T18:11:54.681Z,10.91
2023-04-01T18:17:12.561Z,10.80
2023-04-01T18:22:27.138Z,10.75
2023-04-01T18:28:10.471Z,10.69
2023-04-01T18:33:30.464Z,10.63
2023-04-01T18:38:41.473Z,10.59
2023-04-01T18:44:44.337Z,10.53
2023-04-01T18:49:53.497Z,10.39
2023-04-01T18:55:02.063Z,10.34
2023-04-01T19:00:20.503Z,10.35
2023-04-01T19:05:39.425Z,10.31
2023-04-01T19:11:09.569Z,10.25
2023-04-01T19:16:44.990Z,10.24
2023-04-01T19:21:54.022Z,10.21
2023-04-01T19:27:37.605Z,10.15
2023-04-01T19:32:49.205Z,10.07
2023-04-01T19:38:06.573Z,10.02
2023-04-01T19:43:27.591Z,9.96
2023-04-01T19:48:53.004Z,9.79
2023-04-01T19:54:56.230Z,9.65
2023-04-01T20:00:29.015Z,9.58
2023-04-01T20:06:05.830Z,9.54
2023-04-01T20:11:47.225Z,9.51
2023-04-01T20:17:25.747Z,9.55
2023-04-01T20:23:31.670Z,9.52
2023-04-01T20:28:58.362Z,9.43
2023-04-01T20:34:13.220Z,9.41
2023-04-01T20:39:29.234Z,9.38
2023-04-01T20:45:06.148Z,9.35
2023-04-01T20:50:09.064Z,9.31
2023-04-01T20:55:23.934Z,9.33
2023-04-01T21:00:41.450Z,9.35
2023-04-01T21:06:18.226Z,9.26
2023-04-01T21:11:33.585Z,9.15
2023-04-01T21:16:52.621Z,9.13
2023-04-01T21:22:16.732Z,9.12
2023-04-01T21:27:34.648Z,9.13
2023-04-01T21:33:04.998Z,9.13
2023-04-01T21:38:11.104Z,9.12
2023-04-01T21:44:00.566Z,9.16
2023-04-01T21:49:13.909Z,9.23
2023-04-01T21:54:59.738Z,9.24
2023-04-01T22:00:34.785Z,9.23
2023-04-01T22:06:01.751Z,9.22
2023-04-01T22:11:24.721Z,9.22
2023-04-01T22:17:04.454Z,9.20
2023-04-01T22:22:42.063Z,9.26
2023-04-01T22:27:56.885Z,9.21
2023-04-01T22:33:32.222Z,9.13
2023-04-01T22:38:56.834Z,9.07
2023-04-01T22:44:00.647Z,9.09
2023-04-01T22:49:12.231Z,9.13
2023-04-01T22:54:26.756Z,9.13
2023-04-01T22:59:58.426Z,9.03
2023-04-01T23:05:04.969Z,9.00
2023-04-01T23:10:21.309Z,9.01
2023-04-01T23:15:24.429Z,9.09
2023-04-01T23:20:35.955Z,9.13
2023-04-01T23:25:56.422Z,9.12
2023-04-01T23:30:59.367Z,9.04
2023-04-01T23:36:16.530Z,9.08
2023-04-01T23:41:31.653Z,9.15
2023-04-01T23:46:36.485Z,9.13
2023-04-01T23:51:51.851Z,9.06
2023-04-01T23:56:57.472Z,9.06
